Alouetteii — V7ON8 — position and weather

sailwx.info

Track history (hours):
 
Tides and Currents Weather Stations Pressure Air Temp Water Temp Dewpoint Dewpoint Depression Visibility Wind Speed Wind Dir Waves Ship Positions

Alouetteii

Last reported at 2016-Jun-29 23:33 UTC. Time now 2016-Jun-30 03:19 UTC.
Position N 37°56' E 023°41'.

Length 54 m; draft 3.5 m.

MMSI: 538070488.

Date/timePositionNaut miles runAvg speedWind from/ knotsBaromVisibWave heightAir tempDewpointWater temp
2016-Jun-29 23:33N 37°56' E 023°41'0 0.0
2016-Jun-29 22:33N 37°56' E 023°41'0 0.0
2016-Jun-29 21:33N 37°56' E 023°41'0 0.0
2016-Jun-29 20:33N 37°56' E 023°41'0 0.0
2016-Jun-29 19:33N 37°56' E 023°41'0 0.0
2016-Jun-29 18:33N 37°56' E 023°41'0 0.0
2016-Jun-29 17:33N 37°56' E 023°41'0 0.0
2016-Jun-29 16:33N 37°56' E 023°41'0 0.0
2016-Jun-29 15:34N 37°56' E 023°41'0 0.0
2016-Jun-29 14:34N 37°56' E 023°41'0 0.0
2016-Jun-29 13:33N 37°56' E 023°41'0 0.0
2016-Jun-29 12:33N 37°56' E 023°41'0 0.0
2016-Jun-29 11:33N 37°56' E 023°41'0 0.0
2016-Jun-29 10:32N 37°56' E 023°41'0 0.0
2016-Jun-29 09:34N 37°56' E 023°41'0 0.0
2016-Jun-29 08:34N 37°56' E 023°41'0 0.0
2016-Jun-29 07:34N 37°56' E 023°41'0 0.0
2016-Jun-27 05:28N 37°56' E 023°41'0 0.0
2016-Jun-27 04:32N 37°56' E 023°41'0 0.0
2016-Jun-27 03:33N 37°56' E 023°41'0 0.0
2016-Jun-27 02:32N 37°56' E 023°41'0 0.0
2016-Jun-27 00:23N 37°56' E 023°41'0 0.0
2016-Jun-26 23:33N 37°56' E 023°41'0 0.0
2016-Jun-26 22:31N 37°56' E 023°41'0 0.0
2016-Jun-26 21:34N 37°56' E 023°41'0 0.0
2016-Jun-26 20:33N 37°56' E 023°41'0 0.0
2016-Jun-26 19:33N 37°56' E 023°41'0 0.0
2016-Jun-26 18:33N 37°56' E 023°41'0 0.0
2016-Jun-26 17:27N 37°56' E 023°41'8 8.0
2016-Jun-26 16:30N 37°51' E 023°33'1111.9
2016-Jun-26 15:33N 37°45' E 023°22'4 3.5
2016-Jun-26 14:20N 37°41' E 023°19'0 0.0
2016-Jun-26 11:05N 37°41' E 023°19'0 0.0
2016-Jun-26 10:26N 37°41' E 023°19'0 0.0
2016-Jun-26 09:29N 37°41' E 023°19'6 6.2
2016-Jun-26 08:33N 37°37' E 023°25'8 7.5
2016-Jun-26 07:33N 37°30' E 023°27'0 0.0
2016-Jun-26 06:30N 37°30' E 023°27'0 0.0
2016-Jun-26 05:33N 37°30' E 023°27'0 0.0
2016-Jun-26 04:33N 37°30' E 023°27'0 0.0
2016-Jun-26 03:27N 37°30' E 023°27'0 0.0
2016-Jun-26 02:27N 37°30' E 023°27'0 0.0
2016-Jun-26 01:30N 37°30' E 023°27'0 0.0
2016-Jun-26 00:33N 37°30' E 023°27'0 0.0
2016-Jun-25 23:33N 37°30' E 023°27'0 0.0
2016-Jun-25 22:33N 37°30' E 023°27'0 0.0
2016-Jun-25 21:33N 37°30' E 023°27'0 0.0
2016-Jun-25 20:33N 37°30' E 023°27'0 0.0
2016-Jun-25 19:33N 37°30' E 023°27'0 0.0
2016-Jun-25 18:33N 37°30' E 023°27'0 0.0
2016-Jun-25 17:33N 37°30' E 023°27'0 0.0
2016-Jun-25 16:33N 37°30' E 023°27'0 0.0
2016-Jun-25 15:30N 37°30' E 023°27'0 0.0
2016-Jun-25 14:33N 37°30' E 023°27'6 6.2
2016-Jun-25 13:33N 37°36' E 023°25'7 6.8
2016-Jun-25 12:33N 37°41' E 023°19'2 2.1
2016-Jun-25 11:33N 37°41' E 023°21'0 0.0
2016-Jun-25 10:33N 37°41' E 023°21'0 0.0
2016-Jun-25 09:33N 37°41' E 023°21'9 9.3
2016-Jun-25 08:33N 37°48' E 023°29'1210.5
2016-Jun-25 07:23N 37°56' E 023°41'0 0.0
2016-Jun-25 06:30N 37°56' E 023°41'0 0.0
2016-Jun-25 05:31N 37°56' E 023°41'  
2016-Jun-20 23:31N 37°56' E 023°41'0 0.0
2016-Jun-20 22:31N 37°56' E 023°41'0 0.0
2016-Jun-20 18:21N 37°56' E 023°41'0 0.0
2016-Jun-20 17:14N 37°56' E 023°41'0 0.0
2016-Jun-20 16:04N 37°56' E 023°41'0 0.0
2016-Jun-20 15:23N 37°56' E 023°41'0 0.4
2016-Jun-20 14:13N 37°56' E 023°40'1312.9
2016-Jun-20 13:14N 37°44' E 023°36'913.2
2016-Jun-20 12:33N 37°35' E 023°34'1211.5
2016-Jun-20 11:31N 37°24' E 023°28'  
Track history (hours):
 
Tides and Currents Weather Stations Pressure Air Temp Water Temp Dewpoint Dewpoint Depression Visibility Wind Speed Wind Dir Waves Ship Positions

Alouetteii

Last reported at 2016-Jun-29 23:33 UTC. Time now 2016-Jun-30 03:19 UTC.
Position N 37°56' E 023°41'.

Length 54 m; draft 3.5 m.

MMSI: 538070488.

Date/timePositionNaut miles runAvg speedWind from/ knotsBaromVisibWave heightAir tempDewpointWater temp
2016-Jun-29 23:33N 37°56' E 023°41'0 0.0
2016-Jun-29 22:33N 37°56' E 023°41'0 0.0
2016-Jun-29 21:33N 37°56' E 023°41'0 0.0
2016-Jun-29 20:33N 37°56' E 023°41'0 0.0
2016-Jun-29 19:33N 37°56' E 023°41'0 0.0
2016-Jun-29 18:33N 37°56' E 023°41'0 0.0
2016-Jun-29 17:33N 37°56' E 023°41'0 0.0
2016-Jun-29 16:33N 37°56' E 023°41'0 0.0
2016-Jun-29 15:34N 37°56' E 023°41'0 0.0
2016-Jun-29 14:34N 37°56' E 023°41'0 0.0
2016-Jun-29 13:33N 37°56' E 023°41'0 0.0
2016-Jun-29 12:33N 37°56' E 023°41'0 0.0
2016-Jun-29 11:33N 37°56' E 023°41'0 0.0
2016-Jun-29 10:32N 37°56' E 023°41'0 0.0
2016-Jun-29 09:34N 37°56' E 023°41'0 0.0
2016-Jun-29 08:34N 37°56' E 023°41'0 0.0
2016-Jun-29 07:34N 37°56' E 023°41'0 0.0
2016-Jun-27 05:28N 37°56' E 023°41'0 0.0
2016-Jun-27 04:32N 37°56' E 023°41'0 0.0
2016-Jun-27 03:33N 37°56' E 023°41'0 0.0
2016-Jun-27 02:32N 37°56' E 023°41'0 0.0
2016-Jun-27 00:23N 37°56' E 023°41'0 0.0
2016-Jun-26 23:33N 37°56' E 023°41'0 0.0
2016-Jun-26 22:31N 37°56' E 023°41'0 0.0
2016-Jun-26 21:34N 37°56' E 023°41'0 0.0
2016-Jun-26 20:33N 37°56' E 023°41'0 0.0
2016-Jun-26 19:33N 37°56' E 023°41'0 0.0
2016-Jun-26 18:33N 37°56' E 023°41'0 0.0
2016-Jun-26 17:27N 37°56' E 023°41'8 8.0
2016-Jun-26 16:30N 37°51' E 023°33'1111.9
2016-Jun-26 15:33N 37°45' E 023°22'4 3.5
2016-Jun-26 14:20N 37°41' E 023°19'0 0.0
2016-Jun-26 11:05N 37°41' E 023°19'0 0.0
2016-Jun-26 10:26N 37°41' E 023°19'0 0.0
2016-Jun-26 09:29N 37°41' E 023°19'6 6.2
2016-Jun-26 08:33N 37°37' E 023°25'8 7.5
2016-Jun-26 07:33N 37°30' E 023°27'0 0.0
2016-Jun-26 06:30N 37°30' E 023°27'0 0.0
2016-Jun-26 05:33N 37°30' E 023°27'0 0.0
2016-Jun-26 04:33N 37°30' E 023°27'0 0.0
2016-Jun-26 03:27N 37°30' E 023°27'0 0.0
2016-Jun-26 02:27N 37°30' E 023°27'0 0.0
2016-Jun-26 01:30N 37°30' E 023°27'0 0.0
2016-Jun-26 00:33N 37°30' E 023°27'0 0.0
2016-Jun-25 23:33N 37°30' E 023°27'0 0.0
2016-Jun-25 22:33N 37°30' E 023°27'0 0.0
2016-Jun-25 21:33N 37°30' E 023°27'0 0.0
2016-Jun-25 20:33N 37°30' E 023°27'0 0.0
2016-Jun-25 19:33N 37°30' E 023°27'0 0.0
2016-Jun-25 18:33N 37°30' E 023°27'0 0.0
2016-Jun-25 17:33N 37°30' E 023°27'0 0.0
2016-Jun-25 16:33N 37°30' E 023°27'0 0.0
2016-Jun-25 15:30N 37°30' E 023°27'0 0.0
2016-Jun-25 14:33N 37°30' E 023°27'6 6.2
2016-Jun-25 13:33N 37°36' E 023°25'7 6.8
2016-Jun-25 12:33N 37°41' E 023°19'2 2.1
2016-Jun-25 11:33N 37°41' E 023°21'0 0.0
2016-Jun-25 10:33N 37°41' E 023°21'0 0.0
2016-Jun-25 09:33N 37°41' E 023°21'9 9.3
2016-Jun-25 08:33N 37°48' E 023°29'1210.5
2016-Jun-25 07:23N 37°56' E 023°41'0 0.0
2016-Jun-25 06:30N 37°56' E 023°41'0 0.0
2016-Jun-25 05:31N 37°56' E 023°41'  
2016-Jun-20 23:31N 37°56' E 023°41'0 0.0
2016-Jun-20 22:31N 37°56' E 023°41'0 0.0
2016-Jun-20 18:21N 37°56' E 023°41'0 0.0
2016-Jun-20 17:14N 37°56' E 023°41'0 0.0
2016-Jun-20 16:04N 37°56' E 023°41'0 0.0
2016-Jun-20 15:23N 37°56' E 023°41'0 0.4
2016-Jun-20 14:13N 37°56' E 023°40'1312.9
2016-Jun-20 13:14N 37°44' E 023°36'913.2
2016-Jun-20 12:33N 37°35' E 023°34'1211.5
2016-Jun-20 11:31N 37°24' E 023°28'  

Dump ship's entire track history